Time;durP1;ratioP1;P1;durP2;ratioP2;P2;SDS_P1;SDS_P2;PMS_P1;PMS_P2;Temp;Humidity;BMP_temperature;BMP_pressure;BME280_temperature;BME280_humidity;BME280_pressure;Samples;Min_cycle;Max_cycle;Signal;HPM_P1;HPM_P2
2022/05/22 00:00:22;;;;;;;13.30;6.60;;;8.80;99.90;;;;;;5017870;28;20065;-77
2022/05/22 00:02:48;;;;;;;10.05;4.85;;;8.80;99.90;;;;;;5020276;28;20037;-78
2022/05/22 00:05:17;;;;;;;11.27;6.15;;;8.70;99.90;;;;;;5019332;28;20064;-78
2022/05/22 00:07:43;;;;;;;13.00;5.25;;;8.70;99.90;;;;;;5010938;28;20060;-78
2022/05/22 00:10:09;;;;;;;15.02;6.25;;;8.70;99.90;;;;;;5011496;28;20669;-77
2022/05/22 00:12:35;;;;;;;14.23;5.75;;;8.80;99.90;;;;;;5010506;28;20508;-78
2022/05/22 00:15:01;;;;;;;13.88;5.93;;;8.90;99.90;;;;;;5009091;28;20037;-77
2022/05/22 00:17:26;;;;;;;11.73;6.00;;;8.90;99.90;;;;;;5017621;28;20025;-77
2022/05/22 00:19:52;;;;;;;13.98;7.68;;;9.00;99.90;;;;;;5016885;28;20044;-78
2022/05/22 00:22:18;;;;;;;11.73;5.68;;;9.00;99.90;;;;;;5027025;28;20572;-77
2022/05/22 00:24:44;;;;;;;14.52;5.97;;;9.10;99.90;;;;;;5014774;28;20085;-77
2022/05/22 00:27:09;;;;;;;10.20;5.70;;;9.20;99.90;;;;;;5021033;28;20091;-77
2022/05/22 00:29:36;;;;;;;11.55;5.05;;;9.20;99.90;;;;;;5011939;28;20485;-77
2022/05/22 00:32:02;;;;;;;12.43;5.88;;;9.30;99.90;;;;;;5020558;28;20061;-77
2022/05/22 00:34:28;;;;;;;7.75;5.32;;;9.30;99.90;;;;;;5020886;28;20029;-77
2022/05/22 00:36:54;;;;;;;13.50;5.78;;;9.30;99.90;;;;;;5022317;28;20029;-77
2022/05/22 00:39:19;;;;;;;15.93;7.13;;;9.30;99.90;;;;;;5011270;28;20114;-77
2022/05/22 00:41:53;;;;;;;15.00;5.07;;;9.30;99.90;;;;;;5015383;28;20374;-78
2022/05/22 00:44:20;;;;;;;11.35;6.15;;;9.30;99.90;;;;;;5012081;28;20036;-78
2022/05/22 00:46:46;;;;;;;13.80;5.35;;;9.20;99.90;;;;;;5021195;28;20112;-77
2022/05/22 00:49:21;;;;;;;11.00;5.88;;;9.20;99.90;;;;;;5031017;28;20032;-77
2022/05/22 00:51:54;;;;;;;15.57;6.00;;;9.20;99.90;;;;;;5042439;28;20041;-77
2022/05/22 00:54:27;;;;;;;12.40;6.15;;;9.10;99.90;;;;;;5018164;28;20497;-77
2022/05/22 00:57:00;;;;;;;9.60;5.60;;;9.10;99.90;;;;;;5023781;28;20032;-77
2022/05/22 00:59:31;;;;;;;15.98;6.10;;;9.00;99.90;;;;;;5019199;28;20030;-77
2022/05/22 01:01:59;;;;;;;10.90;4.93;;;8.90;99.90;;;;;;5017801;28;20030;-77
2022/05/22 01:04:29;;;;;;;11.60;5.38;;;8.90;99.90;;;;;;5028588;28;20095;-78
2022/05/22 01:06:54;;;;;;;11.75;5.43;;;8.80;99.90;;;;;;5025294;28;20037;-77
2022/05/22 01:09:21;;;;;;;11.30;5.75;;;8.80;99.90;;;;;;5027355;28;20087;-77
2022/05/22 01:11:50;;;;;;;10.13;5.05;;;8.80;99.90;;;;;;5022052;28;20043;-77
2022/05/22 01:14:22;;;;;;;10.90;5.10;;;8.80;99.90;;;;;;5017871;28;20022;-77
2022/05/22 01:16:49;;;;;;;11.43;5.35;;;8.90;99.90;;;;;;5007667;28;20030;-77
2022/05/22 01:19:17;;;;;;;10.55;5.43;;;8.90;99.90;;;;;;5013387;28;20025;-77
2022/05/22 01:22:12;;;;;;;10.80;5.28;;;8.90;99.90;;;;;;5010167;28;20534;-76
2022/05/22 01:24:39;;;;;;;8.93;5.03;;;8.90;99.90;;;;;;5016695;28;20111;-77
2022/05/22 01:27:09;;;;;;;12.25;6.15;;;8.80;99.90;;;;;;5020403;28;20492;-77
2022/05/22 01:29:36;;;;;;;15.77;5.53;;;8.80;99.90;;;;;;5021989;28;20025;-77
2022/05/22 01:32:03;;;;;;;12.65;5.43;;;8.80;99.90;;;;;;5015331;28;20084;-78
2022/05/22 01:34:29;;;;;;;9.88;5.30;;;8.90;99.90;;;;;;5017365;28;20033;-77
2022/05/22 01:36:55;;;;;;;8.85;4.80;;;8.90;99.90;;;;;;5023353;28;20060;-77
2022/05/22 01:39:20;;;;;;;9.88;5.40;;;8.90;99.90;;;;;;5024365;28;20029;-76
2022/05/22 01:41:46;;;;;;;15.10;6.07;;;8.90;99.90;;;;;;5017912;28;20121;-77
2022/05/22 01:44:12;;;;;;;13.00;5.88;;;8.90;99.90;;;;;;5022079;28;20096;-77
2022/05/22 01:46:37;;;;;;;12.30;6.35;;;8.80;99.90;;;;;;5005353;28;20038;-77
2022/05/22 01:49:03;;;;;;;11.07;6.28;;;8.80;99.90;;;;;;5018934;28;20033;-77
2022/05/22 01:51:34;;;;;;;16.38;6.88;;;8.80;99.90;;;;;;5014839;28;20534;-77
2022/05/22 01:54:01;;;;;;;11.40;5.53;;;8.80;99.90;;;;;;5025646;28;20060;-77
2022/05/22 01:56:28;;;;;;;11.63;5.82;;;8.80;99.90;;;;;;5022111;28;20071;-76
2022/05/22 01:58:54;;;;;;;9.43;5.25;;;8.70;99.90;;;;;;5016466;28;20034;-77
2022/05/22 02:01:19;;;;;;;10.88;5.65;;;8.60;99.90;;;;;;5016300;28;20392;-77
2022/05/22 02:03:45;;;;;;;9.80;5.57;;;8.60;99.90;;;;;;5022215;28;20037;-77
2022/05/22 02:06:11;;;;;;;8.75;5.53;;;8.50;99.90;;;;;;5021897;28;20468;-76
2022/05/22 02:08:38;;;;;;;12.93;6.20;;;8.40;99.90;;;;;;5020016;28;20045;-77
2022/05/22 02:11:06;;;;;;;12.43;5.90;;;8.40;99.90;;;;;;5018823;28;20033;-77
2022/05/22 02:13:39;;;;;;;11.50;5.40;;;8.30;99.90;;;;;;5024212;28;20468;-77
2022/05/22 02:16:05;;;;;;;9.95;5.03;;;8.30;99.90;;;;;;5009337;28;20033;-77
2022/05/22 02:18:31;;;;;;;9.77;5.53;;;8.30;99.90;;;;;;5021869;28;20037;-77
2022/05/22 02:20:57;;;;;;;14.43;6.45;;;8.30;99.90;;;;;;5020301;28;20056;-77
2022/05/22 02:23:23;;;;;;;12.88;5.85;;;8.30;99.90;;;;;;5021506;28;20036;-76
2022/05/22 02:25:54;;;;;;;14.98;6.78;;;8.30;99.90;;;;;;5018540;28;20041;-77
2022/05/22 02:28:21;;;;;;;9.00;5.63;;;8.40;99.90;;;;;;5017976;28;20037;-77
2022/05/22 02:30:53;;;;;;;13.90;6.57;;;8.30;99.90;;;;;;5018289;28;20133;-77
2022/05/22 02:33:19;;;;;;;13.95;6.03;;;8.40;99.90;;;;;;5026196;28;20099;-77
2022/05/22 02:35:44;;;;;;;14.30;7.05;;;8.40;99.90;;;;;;5021638;28;20037;-77
2022/05/22 02:38:10;;;;;;;10.68;6.25;;;8.40;99.90;;;;;;5018706;28;20622;-77
2022/05/22 02:40:38;;;;;;;15.80;6.65;;;8.40;99.90;;;;;;5019063;28;20424;-77
2022/05/22 02:43:05;;;;;;;12.18;6.53;;;8.30;99.90;;;;;;5020926;28;20036;-77
2022/05/22 02:45:32;;;;;;;14.38;6.50;;;8.30;99.90;;;;;;5019690;28;20477;-77
2022/05/22 02:47:58;;;;;;;14.98;5.50;;;8.20;99.90;;;;;;5006807;28;20087;-77
2022/05/22 02:50:27;;;;;;;15.30;6.75;;;8.10;99.90;;;;;;5029483;28;20029;-77
2022/05/22 02:52:53;;;;;;;16.33;7.22;;;8.10;99.90;;;;;;5022006;28;20729;-77
2022/05/22 02:55:20;;;;;;;12.50;5.88;;;8.10;99.90;;;;;;5026195;28;20041;-77
2022/05/22 02:57:46;;;;;;;14.07;6.72;;;8.00;99.90;;;;;;5009003;28;20041;-77
2022/05/22 03:00:19;;;;;;;12.25;6.22;;;8.00;99.90;;;;;;5019938;28;20037;-77
2022/05/22 03:02:45;;;;;;;11.15;6.68;;;8.00;99.90;;;;;;5026525;28;20047;-76
2022/05/22 03:05:11;;;;;;;8.00;5.03;;;7.90;99.90;;;;;;5020864;28;20480;-77
2022/05/22 03:07:37;;;;;;;11.77;6.38;;;7.90;99.90;;;;;;5022773;28;20493;-76
2022/05/22 03:10:05;;;;;;;12.93;6.10;;;7.80;99.90;;;;;;5026783;28;20136;-76
2022/05/22 03:12:31;;;;;;;10.85;5.68;;;7.70;99.90;;;;;;5014557;28;20036;-76
2022/05/22 03:14:58;;;;;;;10.20;5.50;;;7.70;99.90;;;;;;5020302;28;20029;-77
2022/05/22 03:17:24;;;;;;;11.90;5.32;;;7.70;99.90;;;;;;5010355;28;20068;-77
2022/05/22 03:19:50;;;;;;;9.50;5.38;;;7.60;99.90;;;;;;5022012;28;20064;-76
2022/05/22 03:22:16;;;;;;;11.25;5.60;;;7.60;99.90;;;;;;5022178;28;20037;-77
2022/05/22 03:24:42;;;;;;;10.00;5.72;;;7.50;99.90;;;;;;5019826;28;20041;-76
2022/05/22 03:27:13;;;;;;;9.20;5.90;;;7.50;99.90;;;;;;5016566;28;20052;-76
2022/05/22 03:29:40;;;;;;;10.50;5.63;;;7.50;99.90;;;;;;5022125;28;20032;-77
2022/05/22 03:32:07;;;;;;;10.88;5.60;;;7.50;99.90;;;;;;5021650;28;20056;-77
2022/05/22 03:34:33;;;;;;;12.75;5.70;;;7.60;99.90;;;;;;5022280;28;20120;-76
2022/05/22 03:37:00;;;;;;;11.82;5.72;;;7.60;99.90;;;;;;5021793;28;20122;-76
2022/05/22 03:39:26;;;;;;;12.48;5.93;;;7.60;99.90;;;;;;5021538;28;20036;-75
2022/05/22 03:41:51;;;;;;;10.57;5.88;;;7.60;99.90;;;;;;5018677;28;20031;-76
2022/05/22 03:44:17;;;;;;;14.18;7.13;;;7.70;99.90;;;;;;5017634;28;20116;-76
2022/05/22 03:46:44;;;;;;;9.52;6.38;;;7.80;99.90;;;;;;5018576;28;20041;-75
2022/05/22 03:49:10;;;;;;;11.27;6.75;;;7.90;99.90;;;;;;5026378;28;20071;-76
2022/05/22 03:51:36;;;;;;;11.70;6.18;;;8.00;99.90;;;;;;5022399;28;20029;-76
2022/05/22 03:54:02;;;;;;;9.35;5.60;;;8.00;99.90;;;;;;5016838;28;20893;-75
2022/05/22 03:56:28;;;;;;;10.32;5.28;;;8.10;99.90;;;;;;5021591;28;20030;-76
2022/05/22 03:58:53;;;;;;;11.75;5.88;;;8.10;99.90;;;;;;5018315;28;20378;-76
2022/05/22 04:01:19;;;;;;;10.82;5.55;;;8.10;99.90;;;;;;5018170;28;20408;-76
2022/05/22 04:03:45;;;;;;;11.20;6.05;;;8.10;99.90;;;;;;5020345;28;20029;-76
2022/05/22 04:06:11;;;;;;;11.20;7.20;;;8.20;99.90;;;;;;5017478;28;20037;-75
2022/05/22 04:08:38;;;;;;;13.57;6.10;;;8.10;99.90;;;;;;5019884;28;20025;-76
2022/05/22 04:11:16;;;;;;;7.05;4.93;;;8.10;99.90;;;;;;5030636;28;20030;-76
2022/05/22 04:13:42;;;;;;;7.38;4.97;;;8.00;99.90;;;;;;5017910;28;20075;-76
2022/05/22 04:16:08;;;;;;;9.10;5.57;;;8.00;99.90;;;;;;5013043;28;20393;-75
2022/05/22 04:18:34;;;;;;;11.52;5.28;;;7.90;99.90;;;;;;5020397;28;20040;-76
2022/05/22 04:21:00;;;;;;;10.90;5.43;;;7.90;99.90;;;;;;5017316;28;20021;-75
2022/05/22 04:26:11;;;;;;;11.13;5.30;;;7.90;99.90;;;;;;5019577;28;20547;-75
2022/05/22 04:28:37;;;;;;;8.98;5.10;;;8.00;99.90;;;;;;5017476;28;20120;-76
2022/05/22 04:31:03;;;;;;;8.38;5.07;;;8.00;99.90;;;;;;5016521;28;20057;-75
2022/05/22 04:33:29;;;;;;;10.52;6.70;;;8.00;99.90;;;;;;5018962;28;20036;-75
2022/05/22 04:35:55;;;;;;;10.02;5.47;;;8.10;99.90;;;;;;5022646;28;20040;-76
2022/05/22 04:38:21;;;;;;;11.13;4.97;;;8.10;99.90;;;;;;5023732;28;20031;-76
2022/05/22 04:41:13;;;;;;;7.10;4.90;;;8.20;99.90;;;;;;5025106;28;20041;-76
2022/05/22 04:43:38;;;;;;;11.30;6.03;;;8.20;99.90;;;;;;5021545;28;20033;-76
2022/05/22 04:46:08;;;;;;;10.70;5.68;;;8.20;99.90;;;;;;5023899;28;20036;-75
2022/05/22 04:48:34;;;;;;;6.95;4.97;;;8.20;99.90;;;;;;5023865;28;20116;-75
2022/05/22 04:50:59;;;;;;;12.40;5.53;;;8.20;99.90;;;;;;5029792;28;20654;-76
2022/05/22 04:53:28;;;;;;;11.88;5.70;;;8.20;99.90;;;;;;5016760;28;20035;-76
2022/05/22 04:55:54;;;;;;;11.32;5.43;;;8.20;99.90;;;;;;5020925;28;20488;-76
2022/05/22 04:58:20;;;;;;;8.93;4.78;;;8.20;99.90;;;;;;5024480;28;20025;-76
2022/05/22 05:00:47;;;;;;;9.45;4.78;;;8.20;99.90;;;;;;5022746;28;20053;-76
2022/05/22 05:03:12;;;;;;;10.65;5.13;;;8.20;99.90;;;;;;5022305;28;20030;-76
2022/05/22 05:05:38;;;;;;;14.90;6.00;;;8.20;99.90;;;;;;5023792;28;20506;-76
2022/05/22 05:08:04;;;;;;;14.00;5.65;;;8.10;99.90;;;;;;5019333;28;20053;-76
2022/05/22 05:10:30;;;;;;;10.00;6.28;;;8.20;99.90;;;;;;5024176;28;20120;-75
2022/05/22 05:12:56;;;;;;;10.85;6.45;;;8.30;99.90;;;;;;5023837;28;20025;-75
2022/05/22 05:15:23;;;;;;;11.70;6.40;;;8.40;99.90;;;;;;5005146;28;20030;-75
2022/05/22 05:17:48;;;;;;;8.95;5.93;;;8.40;99.90;;;;;;5018953;28;20057;-75
2022/05/22 05:20:18;;;;;;;13.35;7.65;;;8.50;99.90;;;;;;5016318;28;20057;-75
2022/05/22 05:22:44;;;;;;;9.35;6.35;;;8.60;99.90;;;;;;5023356;28;20029;-75
2022/05/22 05:25:11;;;;;;;17.38;7.22;;;8.50;99.90;;;;;;5018389;28;20029;-75
2022/05/22 05:27:37;;;;;;;20.73;7.50;;;8.60;99.90;;;;;;5013462;28;20068;-75
2022/05/22 05:30:03;;;;;;;14.98;6.78;;;8.70;99.90;;;;;;5022756;28;20076;-75
2022/05/22 05:32:29;;;;;;;17.63;7.90;;;8.90;99.90;;;;;;5021289;28;20052;-75
2022/05/22 05:35:00;;;;;;;21.50;7.18;;;9.10;99.90;;;;;;5024092;28;20037;-75
2022/05/22 05:37:26;;;;;;;10.25;5.60;;;9.20;99.90;;;;;;5023643;28;20029;-75
2022/05/22 05:39:53;;;;;;;9.25;4.60;;;9.40;99.90;;;;;;5020173;28;20545;-76
2022/05/22 05:42:19;;;;;;;9.02;4.70;;;9.50;99.90;;;;;;5037926;28;20115;-75
2022/05/22 05:44:45;;;;;;;6.80;4.82;;;9.60;99.90;;;;;;5022402;28;20029;-74
2022/05/22 05:47:11;;;;;;;11.13;4.88;;;9.80;99.90;;;;;;5019053;28;20123;-75
2022/05/22 05:49:38;;;;;;;9.60;5.30;;;9.90;99.90;;;;;;5023078;28;20026;-75
2022/05/22 05:52:04;;;;;;;15.30;6.15;;;10.00;99.90;;;;;;5021218;28;20036;-75
2022/05/22 05:54:30;;;;;;;13.25;6.18;;;10.20;99.90;;;;;;5021308;28;20033;-76
2022/05/22 05:56:56;;;;;;;13.07;6.55;;;10.20;99.90;;;;;;5024081;28;20025;-75
2022/05/22 05:59:21;;;;;;;8.80;4.68;;;10.20;99.90;;;;;;5016503;28;20052;-75
2022/05/22 06:01:47;;;;;;;10.63;4.50;;;10.20;99.90;;;;;;5032741;28;20041;-75
2022/05/22 06:04:13;;;;;;;10.43;4.38;;;10.30;99.90;;;;;;5021639;28;20029;-76
2022/05/22 06:06:39;;;;;;;14.40;6.85;;;10.80;99.90;;;;;;5016585;28;20041;-76
2022/05/22 06:09:05;;;;;;;14.10;6.75;;;11.30;99.90;;;;;;5018794;28;20108;-76
2022/05/22 06:11:30;;;;;;;13.07;6.68;;;11.80;99.90;;;;;;5022402;28;20298;-75
2022/05/22 06:13:56;;;;;;;11.50;5.43;;;12.10;99.90;;;;;;5022448;28;20532;-76
2022/05/22 06:16:22;;;;;;;9.05;5.13;;;12.70;99.90;;;;;;5020850;28;20112;-76
2022/05/22 06:18:48;;;;;;;7.78;5.05;;;13.00;99.90;;;;;;5031494;28;20029;-76
2022/05/22 06:21:17;;;;;;;9.85;4.88;;;13.30;99.90;;;;;;5003862;28;20033;-76
2022/05/22 06:23:43;;;;;;;14.05;4.93;;;13.50;99.90;;;;;;5018225;28;20480;-76
2022/05/22 06:26:11;;;;;;;9.73;5.15;;;13.60;99.90;;;;;;5021891;28;20075;-76
2022/05/22 06:28:37;;;;;;;10.85;5.90;;;13.70;99.90;;;;;;5016873;28;20029;-76
2022/05/22 06:31:05;;;;;;;8.13;5.88;;;13.60;99.90;;;;;;5016122;28;20045;-76
2022/05/22 06:33:31;;;;;;;12.88;6.57;;;13.70;99.90;;;;;;5020093;28;20397;-76
2022/05/22 06:35:57;;;;;;;12.13;6.15;;;13.40;99.90;;;;;;5021417;28;20170;-76
2022/05/22 06:41:10;;;;;;;18.40;7.45;;;13.10;99.90;;;;;;5011861;28;20361;-76
2022/05/22 06:43:36;;;;;;;11.75;5.90;;;12.90;99.90;;;;;;5022766;28;20497;-76
2022/05/22 06:46:03;;;;;;;12.70;6.82;;;12.60;99.90;;;;;;5019958;28;20044;-76
2022/05/22 06:48:30;;;;;;;16.38;7.55;;;12.40;99.90;;;;;;5011298;28;20029;-77
2022/05/22 06:50:56;;;;;;;18.65;8.20;;;12.30;99.90;;;;;;5017032;28;20040;-77
2022/05/22 06:53:22;;;;;;;18.63;8.70;;;12.30;99.90;;;;;;5016814;28;20033;-76
2022/05/22 06:55:48;;;;;;;17.88;8.02;;;12.40;99.90;;;;;;5016706;28;20043;-77
2022/05/22 06:58:14;;;;;;;18.52;8.10;;;12.50;99.90;;;;;;5020676;28;20464;-77
2022/05/22 07:00:40;;;;;;;15.75;8.15;;;12.60;99.90;;;;;;5011732;28;20041;-77
2022/05/22 07:03:06;;;;;;;18.17;7.78;;;12.70;99.90;;;;;;5018464;28;20507;-77
2022/05/22 07:05:31;;;;;;;20.42;9.45;;;12.80;99.90;;;;;;5026660;28;20033;-77
2022/05/22 07:07:57;;;;;;;14.20;8.38;;;12.90;99.90;;;;;;5018461;28;20047;-77
2022/05/22 07:11:38;;;;;;;16.63;8.73;;;13.00;99.90;;;;;;5022387;28;20144;-78
2022/05/22 07:13:08;;;;;;;15.30;7.70;;;13.00;99.90;;;;;;5019953;28;20042;-77
2022/05/22 07:15:34;;;;;;;18.08;8.52;;;13.10;99.90;;;;;;5021852;28;20033;-76
2022/05/22 07:17:59;;;;;;;13.95;7.88;;;13.20;99.90;;;;;;5013974;28;20104;-73
2022/05/22 07:20:25;;;;;;;19.35;8.27;;;13.40;99.90;;;;;;5014494;28;20499;-74
2022/05/22 07:22:50;;;;;;;13.18;7.60;;;13.60;99.90;;;;;;5018343;28;20041;-75
2022/05/22 07:25:16;;;;;;;16.55;8.40;;;13.70;99.90;;;;;;5020598;28;20041;-75
2022/05/22 07:27:42;;;;;;;16.15;7.38;;;13.80;99.90;;;;;;5018711;28;20042;-76
2022/05/22 07:30:08;;;;;;;14.13;7.32;;;14.00;99.90;;;;;;5017303;28;20041;-76
2022/05/22 07:32:33;;;;;;;15.82;6.45;;;14.80;99.90;;;;;;5011379;28;20029;-75
2022/05/22 07:34:59;;;;;;;10.93;6.40;;;15.00;99.90;;;;;;5006662;28;20033;-76
2022/05/22 07:37:25;;;;;;;15.32;6.60;;;15.70;99.90;;;;;;5013430;28;20033;-76
2022/05/22 07:39:51;;;;;;;12.65;7.50;;;15.70;99.90;;;;;;5007294;28;20040;-75
2022/05/22 07:42:17;;;;;;;13.48;7.25;;;15.80;99.90;;;;;;5003489;28;20029;-76
2022/05/22 07:44:42;;;;;;;11.88;5.93;;;16.20;99.90;;;;;;5006700;28;20481;-77
2022/05/22 07:47:08;;;;;;;10.95;5.88;;;18.30;99.90;;;;;;5018487;28;20080;-78
2022/05/22 07:52:18;;;;;;;6.63;5.80;;;26.80;73.20;;;;;;5006377;28;20373;-77
2022/05/22 07:54:44;;;;;;;8.70;4.80;;;29.00;62.40;;;;;;5009375;28;20509;-75
2022/05/22 07:57:10;;;;;;;7.57;5.45;;;31.20;53.70;;;;;;5013578;28;20061;-75
2022/05/22 07:59:37;;;;;;;10.27;5.85;;;32.20;45.90;;;;;;5007814;28;20104;-74
2022/05/22 08:02:04;;;;;;;8.70;4.95;;;32.60;42.90;;;;;;5013976;28;20022;-75
2022/05/22 08:04:30;;;;;;;9.15;4.15;;;34.20;42.30;;;;;;5019452;28;20148;-75
2022/05/22 08:06:55;;;;;;;7.82;5.10;;;34.50;40.60;;;;;;5019519;28;20037;-75
2022/05/22 08:09:21;;;;;;;8.90;5.15;;;35.30;38.00;;;;;;5022685;28;20048;-75
2022/05/22 08:11:47;;;;;;;7.90;5.60;;;36.20;36.00;;;;;;5017882;28;20388;-75
2022/05/22 08:14:15;;;;;;;8.50;5.30;;;36.50;37.70;;;;;;5012381;28;20036;-75
2022/05/22 08:16:41;;;;;;;7.10;4.68;;;36.60;34.80;;;;;;5012057;28;20080;-76
2022/05/22 08:19:07;;;;;;;10.25;4.35;;;35.90;35.50;;;;;;5011240;28;20026;-76
2022/05/22 08:21:32;;;;;;;6.40;3.72;;;35.10;36.30;;;;;;5009909;28;20057;-76
2022/05/22 08:23:59;;;;;;;7.07;3.50;;;36.00;37.20;;;;;;5012389;28;20033;-76
2022/05/22 08:26:26;;;;;;;6.05;2.83;;;36.00;38.20;;;;;;5019431;28;20038;-76
2022/05/22 08:28:51;;;;;;;5.65;2.83;;;36.60;33.60;;;;;;5015259;28;20021;-77
2022/05/22 08:31:17;;;;;;;9.23;3.47;;;37.10;34.40;;;;;;5010638;28;20143;-76
2022/05/22 08:33:43;;;;;;;6.68;3.38;;;34.40;32.70;;;;;;5011556;28;20033;-76
2022/05/22 08:36:09;;;;;;;4.68;2.78;;;34.30;37.70;;;;;;5014352;28;20059;-76
2022/05/22 08:38:35;;;;;;;5.40;2.78;;;35.60;39.50;;;;;;5014309;28;20027;-76
2022/05/22 08:41:24;;;;;;;5.13;2.30;;;35.30;36.90;;;;;;5014655;28;20037;-77
2022/05/22 08:44:20;;;;;;;6.72;2.60;;;36.40;36.10;;;;;;5013359;28;20042;-77
2022/05/22 08:46:53;;;;;;;6.03;2.70;;;35.80;32.80;;;;;;5013863;28;20496;-76
2022/05/22 08:49:28;;;;;;;4.13;1.73;;;35.90;35.40;;;;;;5011494;28;20041;-76
2022/05/22 08:51:58;;;;;;;4.78;2.13;;;36.60;35.20;;;;;;5008111;28;20035;-77
2022/05/22 08:54:31;;;;;;;9.07;2.72;;;36.10;30.30;;;;;;5019303;28;20029;-77
2022/05/22 08:59:48;;;;;;;4.22;2.05;;;33.70;33.80;;;;;;5014070;28;21924;-76
2022/05/22 09:02:34;;;;;;;3.95;1.48;;;34.50;38.00;;;;;;5010913;28;20083;-78
2022/05/22 09:05:03;;;;;;;7.57;2.40;;;34.70;32.30;;;;;;5013449;28;20033;-78
2022/05/22 09:07:28;;;;;;;6.57;2.00;;;34.30;34.60;;;;;;5022697;28;20041;-76
2022/05/22 09:10:03;;;;;;;7.53;2.30;;;34.20;34.00;;;;;;5015987;28;20072;-77
2022/05/22 09:12:31;;;;;;;6.40;2.08;;;33.80;32.60;;;;;;5016911;28;20037;-78
2022/05/22 09:15:17;;;;;;;4.03;1.80;;;33.40;38.30;;;;;;5010270;28;20038;-77
2022/05/22 09:18:12;;;;;;;4.28;1.85;;;34.40;37.60;;;;;;5009478;28;20044;-78
2022/05/22 09:20:44;;;;;;;6.90;1.88;;;32.30;37.40;;;;;;5006703;28;20508;-78
2022/05/22 09:23:16;;;;;;;6.65;2.08;;;32.20;40.90;;;;;;5011105;28;20024;-77
2022/05/22 09:25:48;;;;;;;6.28;1.73;;;32.10;36.10;;;;;;5013380;28;20142;-77
2022/05/22 09:28:30;;;;;;;7.20;2.42;;;33.40;35.90;;;;;;5014331;28;20041;-77
2022/05/22 09:31:14;;;;;;;4.18;1.45;;;33.20;36.00;;;;;;5014751;28;20084;-77
2022/05/22 09:34:34;;;;;;;5.95;1.80;;;31.40;35.90;;;;;;5011571;28;20030;-77
2022/05/22 09:37:25;;;;;;;6.15;1.67;;;30.90;40.40;;;;;;4989405;28;20120;-77
2022/05/22 09:40:02;;;;;;;6.47;1.50;;;30.20;39.90;;;;;;4989030;28;20049;-78
2022/05/22 09:42:46;;;;;;;10.45;2.15;;;28.80;39.40;;;;;;5003642;28;20531;-78
2022/05/22 09:45:32;;;;;;;6.90;1.60;;;29.60;47.40;;;;;;4995775;28;20041;-77
2022/05/22 09:47:57;;;;;;;6.28;2.00;;;30.60;43.40;;;;;;5016396;28;20076;-78
2022/05/22 09:50:26;;;;;;;8.68;1.92;;;30.60;43.70;;;;;;5018811;28;20057;-77
2022/05/22 09:53:14;;;;;;;7.68;2.05;;;31.40;39.70;;;;;;5014480;28;20570;-77
2022/05/22 09:55:42;;;;;;;8.25;1.63;;;32.40;34.80;;;;;;5017718;28;20029;-78
2022/05/22 09:58:23;;;;;;;6.78;1.70;;;32.50;38.10;;;;;;5015087;28;20454;-77
2022/05/22 10:00:55;;;;;;;8.98;1.98;;;32.60;35.80;;;;;;5014449;28;20034;-75
2022/05/22 10:03:41;;;;;;;7.65;2.20;;;32.80;34.70;;;;;;5008468;28;20033;-77
2022/05/22 10:06:45;;;;;;;6.07;1.98;;;32.90;34.70;;;;;;5002557;28;20504;-77
2022/05/22 10:09:46;;;;;;;5.47;1.65;;;31.90;35.40;;;;;;5013780;28;20084;-77
2022/05/22 10:12:29;;;;;;;9.80;2.50;;;32.40;33.50;;;;;;5021196;28;20042;-77
2022/05/22 10:15:00;;;;;;;6.80;1.80;;;31.60;34.80;;;;;;5017759;28;20099;-78
2022/05/22 10:17:44;;;;;;;4.78;1.65;;;32.10;35.60;;;;;;5008576;28;20033;-78
2022/05/22 10:20:12;;;;;;;8.82;2.00;;;31.60;38.20;;;;;;5002955;28;20196;-78
2022/05/22 10:22:59;;;;;;;6.35;1.58;;;31.90;37.10;;;;;;5009418;28;20036;-77
2022/05/22 10:25:42;;;;;;;7.28;1.85;;;32.40;40.00;;;;;;5011840;28;20033;-77
2022/05/22 10:28:19;;;;;;;8.18;2.03;;;32.40;35.30;;;;;;5010350;28;20041;-78
2022/05/22 10:30:59;;;;;;;7.95;2.80;;;32.00;37.30;;;;;;5023209;28;20057;-78
2022/05/22 10:33:27;;;;;;;6.77;1.83;;;31.40;35.00;;;;;;5001241;28;20423;-78
2022/05/22 10:36:05;;;;;;;7.07;1.85;;;31.20;34.50;;;;;;5010229;28;20032;-79
2022/05/22 10:38:39;;;;;;;7.65;1.85;;;31.60;40.10;;;;;;5011746;28;20029;-79
2022/05/22 10:44:10;;;;;;;6.82;1.60;;;30.10;37.00;;;;;;5015108;28;20069;-77
2022/05/22 10:46:49;;;;;;;5.27;1.40;;;31.10;36.90;;;;;;5006845;28;20570;-78
2022/05/22 10:49:16;;;;;;;3.88;1.55;;;31.10;37.20;;;;;;5012628;28;20028;-76
2022/05/22 10:51:55;;;;;;;4.65;1.80;;;31.80;39.10;;;;;;5010264;28;20029;-78
2022/05/22 10:54:26;;;;;;;5.13;1.55;;;31.10;33.70;;;;;;5003407;28;20033;-78
2022/05/22 10:56:51;;;;;;;6.10;1.77;;;30.60;37.10;;;;;;5010638;28;20040;-77
2022/05/22 10:59:22;;;;;;;6.35;1.50;;;29.90;41.70;;;;;;5011278;28;20029;-78
2022/05/22 11:02:00;;;;;;;8.65;1.92;;;30.60;37.40;;;;;;5009521;28;20033;-74
2022/05/22 11:04:37;;;;;;;4.88;1.45;;;28.70;39.50;;;;;;5013615;28;20030;-73
2022/05/22 11:07:04;;;;;;;5.78;1.38;;;29.50;45.70;;;;;;5011711;28;20131;-78
2022/05/22 11:09:33;;;;;;;7.13;1.75;;;29.70;42.90;;;;;;5011798;28;20031;-75
2022/05/22 11:12:11;;;;;;;5.88;1.77;;;30.50;43.40;;;;;;5007983;28;20492;-79
2022/05/22 11:14:37;;;;;;;4.60;0.93;;;30.50;37.60;;;;;;5007841;28;20504;-77
2022/05/22 11:17:16;;;;;;;4.22;0.80;;;30.40;46.20;;;;;;5003142;28;20064;-77
2022/05/22 11:19:44;;;;;;;3.95;1.00;;;30.30;40.80;;;;;;5007078;28;20029;-75
2022/05/22 11:22:23;;;;;;;6.05;1.13;;;30.90;39.90;;;;;;5005876;28;20481;-76
2022/05/22 11:25:27;;;;;;;4.88;0.90;;;30.40;36.60;;;;;;5017821;28;20056;-76
2022/05/22 11:28:13;;;;;;;3.28;0.68;;;29.70;40.60;;;;;;5015687;28;20068;-76
2022/05/22 11:30:45;;;;;;;2.15;0.80;;;28.50;40.80;;;;;;5014533;28;20042;-76
2022/05/22 11:33:32;;;;;;;4.38;1.00;;;28.20;41.40;;;;;;5022560;28;20044;-77
2022/05/22 11:36:13;;;;;;;5.05;0.65;;;27.20;42.60;;;;;;5015741;28;20032;-77
2022/05/22 11:39:07;;;;;;;3.78;1.00;;;26.60;39.00;;;;;;5014633;28;20029;-74
2022/05/22 11:41:41;;;;;;;2.30;0.65;;;26.30;41.40;;;;;;5008855;28;20051;-75
2022/05/22 11:44:42;;;;;;;4.20;1.05;;;26.10;44.40;;;;;;5007173;28;20033;-73
2022/05/22 11:47:36;;;;;;;2.05;0.50;;;26.10;45.00;;;;;;4996415;28;20052;-75
2022/05/22 11:50:28;;;;;;;3.40;0.73;;;26.30;44.60;;;;;;5009082;28;20029;-77
2022/05/22 11:53:26;;;;;;;3.95;0.75;;;25.80;40.60;;;;;;4991237;28;20037;-74
2022/05/22 11:56:21;;;;;;;2.85;1.02;;;25.90;43.40;;;;;;5002433;28;20163;-76
2022/05/22 11:59:24;;;;;;;1.17;0.57;;;25.60;38.40;;;;;;5013800;28;20048;-75
2022/05/22 12:02:19;;;;;;;1.33;0.50;;;25.60;44.20;;;;;;5006812;28;20538;-77
2022/05/22 12:05:03;;;;;;;1.05;0.40;;;26.00;40.20;;;;;;4999926;28;20486;-74
2022/05/22 12:08:25;;;;;;;2.90;0.63;;;26.20;41.10;;;;;;5013235;28;20057;-74
2022/05/22 12:11:14;;;;;;;0.77;0.30;;;25.80;35.30;;;;;;5012653;28;20044;-73
2022/05/22 12:13:51;;;;;;;2.13;0.40;;;26.10;35.00;;;;;;4996139;28;20145;-75
2022/05/22 12:16:21;;;;;;;4.22;0.40;;;25.60;41.10;;;;;;5003628;28;20039;-73
2022/05/22 12:19:02;;;;;;;3.20;0.57;;;25.60;36.90;;;;;;4998090;28;20045;-75
2022/05/22 12:21:52;;;;;;;1.95;0.40;;;25.40;38.70;;;;;;5003672;28;20114;-75
2022/05/22 12:24:31;;;;;;;1.23;0.43;;;25.10;39.10;;;;;;5000207;28;20030;-73
2022/05/22 12:26:58;;;;;;;1.75;0.50;;;25.30;43.00;;;;;;5005061;28;20056;-73
2022/05/22 12:29:34;;;;;;;2.13;0.55;;;25.50;46.20;;;;;;5005888;28;20064;-75
2022/05/22 12:32:11;;;;;;;0.60;0.20;;;25.50;43.80;;;;;;5004023;28;20061;-74
2022/05/22 12:34:48;;;;;;;1.88;0.40;;;25.60;46.10;;;;;;5003477;28;20145;-74
2022/05/22 12:37:23;;;;;;;2.10;0.32;;;25.60;37.80;;;;;;5008030;28;20736;-75
2022/05/22 12:40:10;;;;;;;1.42;0.32;;;25.50;40.60;;;;;;5004767;28;20033;-75
2022/05/22 12:42:38;;;;;;;2.20;0.55;;;25.60;40.40;;;;;;5010915;28;20515;-74
2022/05/22 12:45:05;;;;;;;1.92;0.47;;;25.30;39.10;;;;;;5008647;28;20495;-75
2022/05/22 12:47:49;;;;;;;1.02;0.20;;;24.90;43.00;;;;;;5014395;28;20049;-74
2022/05/22 12:50:43;;;;;;;2.80;0.30;;;25.00;40.50;;;;;;5016876;28;20029;-75
2022/05/22 12:53:20;;;;;;;3.15;0.50;;;25.20;36.70;;;;;;5013311;28;20045;-74
2022/05/22 12:55:46;;;;;;;3.83;0.40;;;25.40;38.50;;;;;;4994556;28;20025;-75
2022/05/22 12:58:28;;;;;;;4.38;0.57;;;25.50;42.60;;;;;;5011564;28;20557;-76
2022/05/22 13:00:55;;;;;;;;;;;25.70;38.50;;;;;;5015895;28;20645;-72
2022/05/22 13:03:25;;;;;;;4.28;0.90;;;25.30;36.10;;;;;;5043797;28;19913;-75
2022/05/22 13:06:06;;;;;;;1.38;0.65;;;25.20;40.60;;;;;;5009950;28;20757;-74
2022/05/22 13:08:37;;;;;;;1.35;0.20;;;24.90;35.90;;;;;;5016606;28;20045;-76
2022/05/22 13:11:18;;;;;;;1.42;0.40;;;24.60;45.50;;;;;;5012010;28;20037;-75
2022/05/22 13:13:52;;;;;;;1.03;0.20;;;24.50;44.40;;;;;;5016778;28;20036;-78
2022/05/22 13:16:45;;;;;;;1.90;0.30;;;24.60;44.10;;;;;;5011118;28;20415;-75
2022/05/22 13:19:28;;;;;;;1.13;0.35;;;24.40;45.20;;;;;;5009943;28;20084;-74